KLOU/LOU METAR and TAF weather

Enter ICAO airport designator
Station Type Date Time Source
KLOU METAR 2022/06/26 06:53 UTC NOAA

KLOU 260653Z AUTO 16006KT 10SM CLR 27/21 A3001 RMK AO2 SLP153 T02720211


Station Type Date Time Source
KLOU Decoded METAR 2022/06/26 06:53 UTC NOAA

BOWMAN FIELD, KY, United States (KLOU) 38-14N 085-40W 164M
Jun 26, 2022 - 02:53 AM EDT / 2022.06.26 0653 UTC
Wind: from the SSE (160 degrees) at 7 MPH (6 KT):0
Visibility: 10 mile(s):0
Sky conditions: clear
Temperature: 81.0 F (27.2 C)
Dew Point: 70.0 F (21.1 C)
Relative Humidity: 69%
Pressure (altimeter): 30.01 in. Hg (1016 hPa)
ob: KLOU 260653Z AUTO 16006KT 10SM CLR 27/21 A3001 RMK AO2 SLP153 T02720211
cycle: 7

Station Type Date Time Source
KLOU TAF UTC NOAA

Error!

Example: see airport list